createdAt,value
2018-03-28T00:01:01.690Z,94352.72
2018-03-28T00:04:05.273Z,94355.64
2018-03-28T00:07:09.304Z,94351.16
2018-03-28T00:10:12.569Z,94347.30
2018-03-28T00:13:15.868Z,94345.13
2018-03-28T00:16:19.153Z,94341.43
2018-03-28T00:19:22.442Z,94344.09
2018-03-28T00:22:25.949Z,94343.31
2018-03-28T00:25:29.230Z,94343.28
2018-03-28T00:28:32.891Z,94340.50
2018-03-28T00:31:36.926Z,94343.97
2018-03-28T00:34:40.364Z,94340.55
2018-03-28T00:37:43.617Z,94335.00
2018-03-28T00:40:47.210Z,94330.48
2018-03-28T00:43:51.235Z,94326.41
2018-03-28T00:46:54.518Z,94327.23
2018-03-28T00:49:58.830Z,94323.82
2018-03-28T00:53:03.164Z,94319.59
2018-03-28T00:56:07.190Z,94316.81
2018-03-28T00:59:10.475Z,94317.35
2018-03-28T01:02:14.494Z,94321.15
2018-03-28T01:05:17.776Z,94315.45
2018-03-28T01:08:22.212Z,94313.13
2018-03-28T01:11:25.579Z,94306.80
2018-03-28T01:14:28.851Z,94311.95
2018-03-28T01:17:32.236Z,94311.61
2018-03-28T01:20:35.505Z,94305.69
2018-03-28T01:23:39.552Z,94301.40
2018-03-28T01:26:42.820Z,94296.97
2018-03-28T01:29:46.093Z,94292.70
2018-03-28T01:32:49.370Z,94293.13
2018-03-28T01:35:52.669Z,94280.83
2018-03-28T01:38:55.982Z,94286.72
2018-03-28T01:41:59.237Z,94288.47
2018-03-28T01:45:02.524Z,94279.23
2018-03-28T01:48:05.790Z,94273.34
2018-03-28T01:51:10.080Z,94274.80
2018-03-28T01:54:13.353Z,94274.65
2018-03-28T01:57:16.842Z,94271.48
2018-03-28T02:00:20.118Z,94265.61
2018-03-28T02:03:23.393Z,94261.77
2018-03-28T02:06:27.422Z,94256.31
2018-03-28T02:09:31.450Z,94253.35
2018-03-28T02:12:34.738Z,94244.70
2018-03-28T02:15:39.054Z,94247.02
2018-03-28T02:18:43.081Z,94235.98
2018-03-28T02:21:46.348Z,94238.73
2018-03-28T02:24:49.793Z,94232.08
2018-03-28T02:27:53.106Z,94232.47
2018-03-28T02:30:56.378Z,94234.22
2018-03-28T02:33:59.674Z,94228.67
2018-03-28T02:37:03.073Z,94227.20
2018-03-28T02:40:06.633Z,94231.56
2018-03-28T02:43:09.898Z,94218.13
2018-03-28T02:46:13.174Z,94214.48
2018-03-28T02:49:16.439Z,94222.82
2018-03-28T02:52:20.478Z,94215.73
2018-03-28T02:55:23.753Z,94215.41
2018-03-28T02:58:28.480Z,94211.50
2018-03-28T03:01:31.736Z,94214.48
2018-03-28T03:04:35.590Z,94217.98
2018-03-28T03:07:38.851Z,94219.14
2018-03-28T03:10:42.900Z,94207.86
2018-03-28T03:13:46.207Z,94199.82
2018-03-28T03:16:49.457Z,94200.74
2018-03-28T03:19:52.733Z,94201.07
2018-03-28T03:22:55.986Z,94208.66
2018-03-28T03:25:59.249Z,94207.02
2018-03-28T03:29:02.519Z,94206.27
2018-03-28T03:32:05.781Z,94213.78
2018-03-28T03:35:09.067Z,94212.23
2018-03-28T03:38:12.342Z,94213.17
2018-03-28T03:41:15.645Z,94216.72
2018-03-28T03:44:18.919Z,94215.41
2018-03-28T03:47:22.198Z,94219.51
2018-03-28T03:50:25.486Z,94212.24
2018-03-28T03:53:30.369Z,94215.94
2018-03-28T03:56:33.640Z,94215.95
2018-03-28T03:59:37.184Z,94221.13
2018-03-28T04:02:40.447Z,94223.00
2018-03-28T04:05:44.027Z,94225.16
2018-03-28T04:08:47.908Z,94217.88
2018-03-28T04:11:51.791Z,94227.71
2018-03-28T04:14:55.072Z,94226.56
2018-03-28T04:17:58.358Z,94229.09
2018-03-28T04:21:01.913Z,94219.66
2018-03-28T04:24:05.215Z,94222.91
2018-03-28T04:27:08.715Z,94219.19
2018-03-28T04:30:12.282Z,94220.97
2018-03-28T04:33:15.549Z,94217.04
2018-03-28T04:36:18.829Z,94218.19
2018-03-28T04:39:22.886Z,94220.65
2018-03-28T04:42:26.160Z,94220.05
2018-03-28T04:45:29.478Z,94225.37
2018-03-28T04:48:33.029Z,94226.69
2018-03-28T04:51:36.313Z,94228.39
2018-03-28T04:54:39.627Z,94229.08
2018-03-28T04:57:42.896Z,94233.52
2018-03-28T05:00:46.178Z,94227.14
2018-03-28T05:03:49.533Z,94231.41
2018-03-28T05:06:53.521Z,94237.90
2018-03-28T05:09:56.789Z,94229.31
2018-03-28T05:13:00.061Z,94229.46
2018-03-28T05:16:03.841Z,94233.48
2018-03-28T05:19:07.134Z,94236.89
2018-03-28T05:22:10.428Z,94239.67
2018-03-28T05:25:13.735Z,94236.88
2018-03-28T05:28:16.998Z,94241.14
2018-03-28T05:31:20.525Z,94238.48
2018-03-28T05:34:23.811Z,94246.23
2018-03-28T05:37:27.365Z,94243.84
2018-03-28T05:40:30.961Z,94240.66
2018-03-28T05:43:35.275Z,94244.84
2018-03-28T05:46:39.318Z,94244.37
2018-03-28T05:49:43.010Z,94244.91
2018-03-28T05:52:46.273Z,94248.43
2018-03-28T05:55:49.600Z,94253.86
2018-03-28T05:58:53.185Z,94252.98
2018-03-28T06:01:56.799Z,94254.77
2018-03-28T06:05:00.845Z,94253.44
2018-03-28T06:08:04.241Z,94252.34
2018-03-28T06:11:07.785Z,94253.19
2018-03-28T06:14:11.344Z,94253.16
2018-03-28T06:17:14.656Z,94246.10
2018-03-28T06:20:18.217Z,94257.31
2018-03-28T06:23:22.562Z,94254.52
2018-03-28T06:26:26.108Z,94252.28
2018-03-28T06:29:29.435Z,94256.23
2018-03-28T06:32:33.486Z,94256.42
2018-03-28T06:35:36.770Z,94252.03
2018-03-28T06:38:40.819Z,94249.01
2018-03-28T06:41:44.084Z,94254.16
2018-03-28T06:44:48.523Z,94248.67
2018-03-28T06:47:51.795Z,94241.52
2018-03-28T06:50:55.839Z,94239.39
2018-03-28T06:53:59.122Z,94234.44
2018-03-28T06:57:02.700Z,94238.42
2018-03-28T07:00:06.227Z,94239.24
2018-03-28T07:03:09.509Z,94242.36
2018-03-28T07:06:13.095Z,94240.02
2018-03-28T07:09:16.605Z,94231.36
2018-03-28T07:12:20.209Z,94230.57
2018-03-28T07:15:23.480Z,94234.94
2018-03-28T07:18:26.732Z,94229.30
2018-03-28T07:21:30.311Z,94231.00
2018-03-28T07:24:33.584Z,94226.97
2018-03-28T07:27:36.988Z,94228.52
2018-03-28T07:30:40.276Z,94232.64
2018-03-28T07:33:43.927Z,94231.35
2018-03-28T07:36:47.954Z,94229.95
2018-03-28T07:39:51.994Z,94227.28
2018-03-28T07:42:55.281Z,94224.72
2018-03-28T07:45:58.585Z,94225.94
2018-03-28T07:49:01.849Z,94227.55
2018-03-28T07:52:05.117Z,94229.05
2018-03-28T07:55:08.392Z,94232.06
2018-03-28T07:58:11.663Z,94230.47
2018-03-28T08:01:15.787Z,94229.12
2018-03-28T08:04:19.104Z,94230.16
2018-03-28T08:07:22.441Z,94237.22
2018-03-28T08:10:25.756Z,94237.30
2018-03-28T08:13:29.824Z,94230.52
2018-03-28T08:16:33.095Z,94230.16
2018-03-28T08:19:36.412Z,94226.39
2018-03-28T08:22:39.728Z,94227.48
2018-03-28T08:25:43.379Z,94228.27
2018-03-28T08:28:46.682Z,94216.91
2018-03-28T08:31:50.092Z,94212.66
2018-03-28T08:34:53.390Z,94215.16
2018-03-28T08:37:56.882Z,94215.37
2018-03-28T08:41:00.939Z,94207.30
2018-03-28T08:44:04.988Z,94202.13
2018-03-28T08:47:08.271Z,94197.81
2018-03-28T08:50:11.539Z,94200.27
2018-03-28T08:53:15.040Z,94194.81
2018-03-28T08:56:19.374Z,94197.39
2018-03-28T08:59:22.639Z,94188.75
2018-03-28T09:02:25.949Z,94200.01
2018-03-28T09:05:29.237Z,94195.56
2018-03-28T09:08:32.535Z,94199.23
2018-03-28T09:11:36.758Z,94187.28
2018-03-28T09:14:40.757Z,94190.28
2018-03-28T09:17:44.831Z,94201.11
2018-03-28T09:20:48.301Z,94191.24
2018-03-28T09:23:51.596Z,94197.30
2018-03-28T09:26:54.885Z,94189.61
2018-03-28T09:29:58.161Z,94183.86
2018-03-28T09:33:02.488Z,94183.72
2018-03-28T09:36:06.793Z,94186.53
2018-03-28T09:39:10.856Z,94183.46
2018-03-28T09:42:14.156Z,94188.26
2018-03-28T09:45:17.440Z,94175.73
2018-03-28T09:48:20.954Z,94175.39
2018-03-28T09:51:24.250Z,94169.16
2018-03-28T09:54:28.545Z,94171.02
2018-03-28T09:57:32.104Z,94167.47
2018-03-28T10:00:35.648Z,94169.27
2018-03-28T10:03:45.140Z,94165.08
2018-03-28T10:06:48.413Z,94165.77
2018-03-28T10:09:52.085Z,94162.13
2018-03-28T10:12:56.372Z,94162.06
2018-03-28T10:15:59.638Z,94162.17
2018-03-28T10:19:02.918Z,94166.06
2018-03-28T10:22:06.201Z,94151.73
2018-03-28T10:25:10.243Z,94154.14
2018-03-28T10:28:13.510Z,94153.80
2018-03-28T10:31:16.803Z,94139.50
2018-03-28T10:34:20.853Z,94138.11
2018-03-28T10:37:24.155Z,94139.23
2018-03-28T10:40:27.448Z,94137.00
2018-03-28T10:43:30.716Z,94119.82
2018-03-28T10:46:34.762Z,94123.95
2018-03-28T10:49:38.139Z,94119.58
2018-03-28T10:52:41.421Z,94126.63
2018-03-28T10:55:45.493Z,94116.86
2018-03-28T10:58:48.778Z,94123.08
2018-03-28T11:01:52.320Z,94118.91
2018-03-28T11:04:55.606Z,94117.12
2018-03-28T11:07:59.118Z,94114.36
2018-03-28T11:11:02.392Z,94112.50
2018-03-28T11:14:05.670Z,94102.64
2018-03-28T11:17:09.013Z,94100.38
2018-03-28T11:20:12.386Z,94094.92
2018-03-28T11:23:15.652Z,94084.27
2018-03-28T11:26:19.693Z,94088.24
2018-03-28T11:29:22.975Z,94080.89
2018-03-28T11:32:26.332Z,94078.45
2018-03-28T11:35:29.841Z,94086.31
2018-03-28T11:38:33.905Z,94069.73
2018-03-28T11:41:37.441Z,94073.23
2018-03-28T11:44:40.741Z,94062.61
2018-03-28T11:47:44.009Z,94064.34
2018-03-28T11:50:47.287Z,94063.69
2018-03-28T11:53:50.591Z,94064.59
2018-03-28T11:56:53.863Z,94054.67
2018-03-28T11:59:57.899Z,94058.70
2018-03-28T12:03:02.234Z,94053.28
2018-03-28T12:06:05.495Z,94055.37
2018-03-28T12:09:09.539Z,94054.44
2018-03-28T12:12:12.843Z,94050.05
2018-03-28T12:15:16.121Z,94046.26
2018-03-28T12:18:19.391Z,94044.30
2018-03-28T12:21:23.688Z,94037.67
2018-03-28T12:24:26.962Z,94040.52
2018-03-28T12:27:30.247Z,94030.81
2018-03-28T12:30:33.552Z,94047.12
2018-03-28T12:33:36.833Z,94028.58
2018-03-28T12:36:40.118Z,94031.69
2018-03-28T12:39:43.452Z,94027.39
2018-03-28T12:42:46.716Z,94019.77
2018-03-28T12:45:50.011Z,94016.64
2018-03-28T12:48:54.110Z,94013.83
2018-03-28T12:51:58.440Z,94008.88
2018-03-28T12:55:02.545Z,94003.04
2018-03-28T12:58:05.829Z,94007.55
2018-03-28T13:01:09.103Z,94006.92
2018-03-28T13:04:12.385Z,94011.02
2018-03-28T13:07:15.654Z,94013.54
2018-03-28T13:10:19.955Z,94006.16
2018-03-28T13:13:23.440Z,93998.56
2018-03-28T13:16:26.715Z,93991.23
2018-03-28T13:19:29.998Z,93995.23
2018-03-28T13:22:33.277Z,93994.20
2018-03-28T13:25:36.589Z,93987.26
2018-03-28T13:28:39.905Z,93978.62
2018-03-28T13:31:43.177Z,93976.03
2018-03-28T13:34:46.452Z,93975.75
2018-03-28T13:37:50.502Z,93961.06
2018-03-28T13:40:54.088Z,93967.75
2018-03-28T13:43:57.648Z,93963.70
2018-03-28T13:47:00.917Z,93950.80
2018-03-28T13:50:05.647Z,93954.98
2018-03-28T13:53:08.937Z,93949.44
2018-03-28T13:56:12.497Z,93945.44
2018-03-28T13:59:16.001Z,93941.66
2018-03-28T14:02:19.267Z,93943.34
2018-03-28T14:05:22.550Z,93934.63
2018-03-28T14:08:26.085Z,93934.38
2018-03-28T14:11:30.229Z,93922.11
2018-03-28T14:14:33.605Z,93921.81
2018-03-28T14:17:36.867Z,93916.95
2018-03-28T14:20:40.158Z,93902.08
2018-03-28T14:23:43.424Z,93902.00
2018-03-28T14:26:47.494Z,93896.51
2018-03-28T14:29:51.853Z,93894.03
2018-03-28T14:32:55.154Z,93890.98
2018-03-28T14:35:59.217Z,93882.61
2018-03-28T14:39:02.618Z,93873.23
2018-03-28T14:42:05.914Z,93871.55
2018-03-28T14:45:09.280Z,93870.23
2018-03-28T14:48:12.522Z,93863.06
2018-03-28T14:51:15.821Z,93867.16
2018-03-28T14:54:19.124Z,93853.50
2018-03-28T14:57:22.398Z,93858.84
2018-03-28T15:00:25.718Z,93850.35
2018-03-28T15:03:29.401Z,93845.62
2018-03-28T15:06:32.730Z,93842.16
2018-03-28T15:09:52.234Z,93846.72
2018-03-28T15:12:56.403Z,93840.78
2018-03-28T15:16:00.535Z,93831.55
2018-03-28T15:19:03.812Z,93830.95
2018-03-28T15:22:07.869Z,93831.55
2018-03-28T15:25:11.196Z,93830.44
2018-03-28T15:28:14.457Z,93822.14
2018-03-28T15:31:17.757Z,93821.30
2018-03-28T15:34:21.055Z,93819.22
2018-03-28T15:37:24.636Z,93819.80
2018-03-28T15:40:28.749Z,93812.09
2018-03-28T15:43:33.580Z,93813.72
2018-03-28T15:46:37.608Z,93815.66
2018-03-28T15:49:40.905Z,93815.63
2018-03-28T15:52:44.167Z,93819.81
2018-03-28T15:55:47.456Z,93817.78
2018-03-28T15:58:50.716Z,93814.74
2018-03-28T16:01:54.024Z,93813.22
2018-03-28T16:04:57.333Z,93816.09
2018-03-28T16:08:01.605Z,93803.61
2018-03-28T16:11:05.681Z,93800.12
2018-03-28T16:14:08.952Z,93798.56
2018-03-28T16:17:12.221Z,93806.70
2018-03-28T16:20:16.348Z,93803.19
2018-03-28T16:23:19.644Z,93797.71
2018-03-28T16:26:22.922Z,93788.94
2018-03-28T16:29:27.557Z,93790.44
2018-03-28T16:32:30.841Z,93790.95
2018-03-28T16:35:34.869Z,93789.84
2018-03-28T16:38:38.909Z,93785.67
2018-03-28T16:41:42.232Z,93782.77
2018-03-28T16:44:45.498Z,93782.52
2018-03-28T16:47:48.781Z,93782.77
2018-03-28T16:50:52.056Z,93776.60
2018-03-28T16:53:55.566Z,93770.39
2018-03-28T16:56:59.616Z,93763.80
2018-03-28T17:00:03.021Z,93754.11
2018-03-28T17:03:07.116Z,93749.66
2018-03-28T17:06:10.394Z,93753.55
2018-03-28T17:09:33.355Z,93752.27
2018-03-28T17:12:37.598Z,93741.59
2018-03-28T17:15:40.960Z,93729.28
2018-03-28T17:18:44.229Z,93725.12
2018-03-28T17:21:47.497Z,93727.98
2018-03-28T17:24:50.804Z,93733.03
2018-03-28T17:27:54.071Z,93740.80
2018-03-28T17:31:01.163Z,93743.51
2018-03-28T17:34:04.955Z,93742.19
2018-03-28T17:37:09.039Z,93745.98
2018-03-28T17:40:12.310Z,93751.09
2018-03-28T17:43:15.595Z,93758.77
2018-03-28T17:46:18.893Z,93770.16
2018-03-28T17:49:22.158Z,93758.20
2018-03-28T17:52:25.403Z,93744.59
2018-03-28T17:55:28.695Z,93742.16
2018-03-28T17:58:31.965Z,93735.87
2018-03-28T18:01:35.993Z,93742.08
2018-03-28T18:04:39.267Z,93743.85
2018-03-28T18:07:43.285Z,93754.48
2018-03-28T18:10:47.312Z,93751.96
2018-03-28T18:13:50.603Z,93740.38
2018-03-28T18:16:54.626Z,93731.77
2018-03-28T18:19:58.654Z,93729.92
2018-03-28T18:23:01.910Z,93726.82
2018-03-28T18:26:05.199Z,93727.44
2018-03-28T18:29:08.450Z,93724.25
2018-03-28T18:32:11.717Z,93714.42
2018-03-28T18:35:15.771Z,93715.13
2018-03-28T18:38:19.340Z,93715.34
2018-03-28T18:41:23.353Z,93724.39
2018-03-28T18:44:26.665Z,93720.59
2018-03-28T18:47:29.990Z,93714.85
2018-03-28T18:50:33.979Z,93711.92
2018-03-28T18:53:38.212Z,93709.79
2018-03-28T18:56:42.300Z,93708.75
2018-03-28T18:59:46.539Z,93711.78
2018-03-28T19:02:49.856Z,93705.83
2018-03-28T19:05:53.134Z,93708.68
2018-03-28T19:08:56.408Z,93705.34
2018-03-28T19:11:59.720Z,93695.38
2018-03-28T19:15:03.768Z,93696.89
2018-03-28T19:18:07.038Z,93698.08
2018-03-28T19:21:11.084Z,93693.38
2018-03-28T19:24:14.360Z,93698.27
2018-03-28T19:27:17.643Z,93702.05
2018-03-28T19:30:21.673Z,93693.41
2018-03-28T19:33:24.941Z,93691.45
2018-03-28T19:36:28.194Z,93692.83
2018-03-28T19:39:31.477Z,93692.64
2018-03-28T19:42:34.790Z,93687.58
2018-03-28T19:45:38.105Z,93695.30
2018-03-28T19:48:41.418Z,93694.32
2018-03-28T19:51:44.685Z,93704.05
2018-03-28T19:54:47.961Z,93697.97
2018-03-28T19:57:51.432Z,93690.27
2018-03-28T20:00:55.473Z,93684.98
2018-03-28T20:03:58.758Z,93688.76
2018-03-28T20:07:03.481Z,93690.53
2018-03-28T20:10:07.501Z,93692.41
2018-03-28T20:13:11.808Z,93692.48
2018-03-28T20:16:15.089Z,93690.99
2018-03-28T20:19:18.419Z,93689.80
2018-03-28T20:22:22.472Z,93691.36
2018-03-28T20:25:25.834Z,93691.70
2018-03-28T20:28:30.162Z,93686.78
2018-03-28T20:31:33.453Z,93681.97
2018-03-28T20:34:37.526Z,93684.42
2018-03-28T20:37:41.285Z,93681.33
2018-03-28T20:40:44.546Z,93672.02
2018-03-28T20:43:47.862Z,93663.03
2018-03-28T20:46:51.908Z,93669.70
2018-03-28T20:49:55.216Z,93668.84
2018-03-28T20:53:00.199Z,93665.55
2018-03-28T20:56:03.638Z,93675.27
2018-03-28T20:59:06.892Z,93673.52
2018-03-28T21:02:10.162Z,93674.89
2018-03-28T21:05:13.468Z,93682.93
2018-03-28T21:08:17.450Z,93688.12
2018-03-28T21:11:20.792Z,93685.53
2018-03-28T21:14:24.062Z,93679.81
2018-03-28T21:17:27.332Z,93682.07
2018-03-28T21:20:30.624Z,93690.02
2018-03-28T21:23:34.648Z,93690.16
2018-03-28T21:26:37.941Z,93701.73
2018-03-28T21:29:41.230Z,93698.33
2018-03-28T21:32:44.543Z,93702.47
2018-03-28T21:35:47.780Z,93701.47
2018-03-28T21:38:51.068Z,93698.80
2018-03-28T21:41:54.368Z,93694.86
2018-03-28T21:44:57.649Z,93697.35
2018-03-28T21:48:00.951Z,93702.81
2018-03-28T21:51:05.103Z,93703.19
2018-03-28T21:54:08.360Z,93704.13
2018-03-28T21:57:11.638Z,93719.02
2018-03-28T22:00:16.316Z,93716.26
2018-03-28T22:03:19.587Z,93723.86
2018-03-28T22:06:23.018Z,93713.44
2018-03-28T22:09:26.717Z,93725.12
2018-03-28T22:12:30.101Z,93719.30
2018-03-28T22:15:33.372Z,93716.81
2018-03-28T22:18:37.688Z,93715.51
2018-03-28T22:21:41.776Z,93716.05
2018-03-28T22:24:45.057Z,93720.69
2018-03-28T22:27:49.323Z,93720.35
2018-03-28T22:30:53.337Z,93717.66
2018-03-28T22:33:57.391Z,93723.05
2018-03-28T22:37:00.698Z,93719.86
2018-03-28T22:40:04.550Z,93718.66
2018-03-28T22:43:07.869Z,93716.30
2018-03-28T22:46:12.278Z,93716.52
2018-03-28T22:49:15.571Z,93718.70
2018-03-28T22:52:21.204Z,93717.89
2018-03-28T22:55:24.459Z,93717.95
2018-03-28T22:58:29.483Z,93723.09
2018-03-28T23:01:33.512Z,93720.44
2018-03-28T23:04:37.769Z,93723.69
2018-03-28T23:07:41.493Z,93727.16
2018-03-28T23:10:46.529Z,93734.65
2018-03-28T23:13:51.196Z,93738.17
2018-03-28T23:16:54.682Z,93743.53
2018-03-28T23:19:58.074Z,93734.77
2018-03-28T23:23:01.366Z,93735.22
2018-03-28T23:26:06.155Z,93742.59
2018-03-28T23:29:09.510Z,93741.48
2018-03-28T23:32:13.666Z,93749.25
2018-03-28T23:35:17.606Z,93750.24
2018-03-28T23:38:21.701Z,93757.14
2018-03-28T23:41:24.961Z,93748.25
2018-03-28T23:44:28.353Z,93751.66
2018-03-28T23:47:32.697Z,93757.59
2018-03-28T23:50:36.023Z,93757.38
2018-03-28T23:53:39.305Z,93766.52
2018-03-28T23:56:42.562Z,93776.44
2018-03-28T23:59:46.276Z,93774.94
